Terminal Aerodrome Forecast
Issued by NWS Quad Cities IA IL

Home | Current Version | Previous Version | Text Only | Print | Product List | Glossary On
Versions: 1 2 3 4 5 6 7 8 9 10 11 12
000
FTUS43 KDVN 250520
TAFDBQ
TAF
KDBQ 250520Z 2506/2606 28005KT P6SM BKN060
     FM251500 31013G20KT P6SM SCT035 BKN050
     FM260100 30005KT P6SM SKC=

USA.gov is the U.S. government's official web portal to all federal, state and local government web resources and services.